createdAt,value
2023-06-02T00:00:27.493Z,30.43
2023-06-02T00:01:27.558Z,31.49
2023-06-02T00:02:27.729Z,31.55
2023-06-02T00:03:27.733Z,29.62
2023-06-02T00:04:27.791Z,29.98
2023-06-02T00:05:27.903Z,31.15
2023-06-02T00:06:27.931Z,29.16
2023-06-02T00:07:28.005Z,32.12
2023-06-02T00:08:28.099Z,31.99
2023-06-02T00:09:28.134Z,31.14
2023-06-02T00:10:28.211Z,32.04
2023-06-02T00:11:28.293Z,28.06
2023-06-02T00:12:28.340Z,29.43
2023-06-02T00:13:28.384Z,27.04
2023-06-02T00:14:28.829Z,26.95
2023-06-02T00:15:28.530Z,30.95
2023-06-02T00:16:28.635Z,29.12
2023-06-02T00:17:28.684Z,28.06
2023-06-02T00:18:28.760Z,28.94
2023-06-02T00:19:28.821Z,29.53
2023-06-02T00:20:28.931Z,29.34
2023-06-02T00:21:29.036Z,30.29
2023-06-02T00:22:29.062Z,28.96
2023-06-02T00:23:29.142Z,28.41
2023-06-02T00:24:29.210Z,29.43
2023-06-02T00:25:29.293Z,27.97
2023-06-02T00:26:29.322Z,31.37
2023-06-02T00:27:29.371Z,30.10
2023-06-02T00:28:29.461Z,32.15
2023-06-02T00:29:29.504Z,29.96
2023-06-02T00:30:29.621Z,30.15
2023-06-02T00:31:29.683Z,29.57
2023-06-02T00:32:29.708Z,28.62
2023-06-02T00:33:29.799Z,26.24
2023-06-02T00:34:29.831Z,29.33
2023-06-02T00:35:29.917Z,28.09
2023-06-02T00:36:29.986Z,31.11
2023-06-02T00:37:30.069Z,28.87
2023-06-02T00:38:30.148Z,28.22
2023-06-02T00:39:30.218Z,27.89
2023-06-02T00:40:30.319Z,30.50
2023-06-02T00:41:30.387Z,32.07
2023-06-02T00:42:30.450Z,28.17
2023-06-02T00:43:30.520Z,33.14
2023-06-02T00:44:30.709Z,30.87
2023-06-02T00:45:30.682Z,30.84
2023-06-02T00:46:30.765Z,29.91
2023-06-02T00:47:30.826Z,28.85
2023-06-02T00:48:30.854Z,27.68
2023-06-02T00:49:30.918Z,26.72
2023-06-02T00:50:31.013Z,27.77
2023-06-02T00:51:31.056Z,27.86
2023-06-02T00:52:31.130Z,31.05
2023-06-02T00:53:31.208Z,30.08
2023-06-02T00:54:31.270Z,29.27
2023-06-02T00:55:31.337Z,26.84
2023-06-02T00:56:31.385Z,28.85
2023-06-02T00:57:31.435Z,32.92
2023-06-02T00:58:31.494Z,28.99
2023-06-02T00:59:31.577Z,32.44
2023-06-02T01:00:31.638Z,28.66
2023-06-02T01:01:31.786Z,30.68
2023-06-02T01:02:31.838Z,30.47
2023-06-02T01:03:31.863Z,28.94
2023-06-02T01:04:31.908Z,30.86
2023-06-02T01:05:31.962Z,28.75
2023-06-02T01:06:32.019Z,32.20
2023-06-02T01:07:32.072Z,28.52
2023-06-02T01:08:32.125Z,29.81
2023-06-02T01:09:32.174Z,28.57
2023-06-02T01:10:32.231Z,27.74
2023-06-02T01:11:32.283Z,33.20
2023-06-02T01:12:32.317Z,31.42
2023-06-02T01:13:32.343Z,29.80
2023-06-02T01:14:32.389Z,30.23
2023-06-02T01:15:32.445Z,32.74
2023-06-02T01:16:32.534Z,29.93
2023-06-02T01:17:32.668Z,30.35
2023-06-02T01:18:32.666Z,30.95
2023-06-02T01:19:32.757Z,31.32
2023-06-02T01:20:32.818Z,30.86
2023-06-02T01:21:32.909Z,25.45
2023-06-02T01:22:32.968Z,31.09
2023-06-02T01:23:33.006Z,28.80
2023-06-02T01:24:33.916Z,27.86
2023-06-02T01:25:33.099Z,30.71
2023-06-02T01:26:33.152Z,30.39
2023-06-02T01:27:33.235Z,31.74
2023-06-02T01:28:33.307Z,31.53
2023-06-02T01:29:33.392Z,31.19
2023-06-02T01:30:33.474Z,31.74
2023-06-02T01:31:33.530Z,29.71
2023-06-02T01:32:33.635Z,29.34
2023-06-02T01:33:33.752Z,30.50
2023-06-02T01:34:33.730Z,26.47
2023-06-02T01:35:33.804Z,27.45
2023-06-02T01:36:33.863Z,32.29
2023-06-02T01:37:33.913Z,33.17
2023-06-02T01:38:33.986Z,31.20
2023-06-02T01:39:34.034Z,29.08
2023-06-02T01:40:34.099Z,30.74
2023-06-02T01:41:34.159Z,31.58
2023-06-02T01:42:34.218Z,26.79
2023-06-02T01:43:34.261Z,30.93
2023-06-02T01:44:34.312Z,31.05
2023-06-02T01:45:34.368Z,30.62
2023-06-02T01:46:34.381Z,26.88
2023-06-02T01:47:34.425Z,30.72
2023-06-02T01:48:34.445Z,29.51
2023-06-02T01:49:34.437Z,33.96
2023-06-02T01:50:34.469Z,28.56
2023-06-02T01:51:34.554Z,27.63
2023-06-02T01:52:34.619Z,34.56
2023-06-02T01:53:34.687Z,30.80
2023-06-02T01:54:34.741Z,30.13
2023-06-02T01:55:34.804Z,31.29
2023-06-02T01:56:34.876Z,33.56
2023-06-02T01:57:34.945Z,33.50
2023-06-02T01:58:35.010Z,29.34
2023-06-02T01:59:35.055Z,32.26
2023-06-02T02:00:35.106Z,31.02
2023-06-02T02:01:35.259Z,28.63
2023-06-02T02:02:35.276Z,33.14
2023-06-02T02:03:35.435Z,33.70
2023-06-02T02:04:35.417Z,33.31
2023-06-02T02:05:35.479Z,28.27
2023-06-02T02:06:35.523Z,26.17
2023-06-02T02:07:35.670Z,30.78
2023-06-02T02:08:35.672Z,33.57
2023-06-02T02:09:35.743Z,31.58
2023-06-02T02:10:35.797Z,31.68
2023-06-02T02:11:35.841Z,32.22
2023-06-02T02:12:35.929Z,31.10
2023-06-02T02:13:35.938Z,33.10
2023-06-02T02:14:35.964Z,29.81
2023-06-02T02:15:35.972Z,31.76
2023-06-02T02:16:36.045Z,29.92
2023-06-02T02:17:36.141Z,30.55
2023-06-02T02:18:36.022Z,27.39
2023-06-02T02:19:36.044Z,32.81
2023-06-02T02:20:36.050Z,27.88
2023-06-02T02:21:36.133Z,31.36
2023-06-02T02:22:36.113Z,31.18
2023-06-02T02:23:36.129Z,30.39
2023-06-02T02:24:36.190Z,30.86
2023-06-02T02:25:36.216Z,28.07
2023-06-02T02:26:36.277Z,31.21
2023-06-02T02:27:36.322Z,30.80
2023-06-02T02:28:36.393Z,30.37
2023-06-02T02:29:36.430Z,28.37
2023-06-02T02:30:36.461Z,29.92
2023-06-02T02:31:36.578Z,31.00
2023-06-02T02:32:36.593Z,27.86
2023-06-02T02:33:36.607Z,32.95
2023-06-02T02:34:36.649Z,28.64
2023-06-02T02:35:36.739Z,29.36
2023-06-02T02:36:36.790Z,29.01
2023-06-02T02:37:45.905Z,33.01
2023-06-02T02:38:37.851Z,33.11
2023-06-02T02:39:36.853Z,32.74
2023-06-02T02:40:36.857Z,32.63
2023-06-02T02:41:36.867Z,33.65
2023-06-02T02:42:36.866Z,33.66
2023-06-02T02:43:36.880Z,28.49
2023-06-02T02:44:36.876Z,30.65
2023-06-02T02:45:36.929Z,31.81
2023-06-02T02:46:36.880Z,31.53
2023-06-02T02:47:36.953Z,34.56
2023-06-02T02:48:36.893Z,28.50
2023-06-02T02:49:36.895Z,33.18
2023-06-02T02:50:37.536Z,29.38
2023-06-02T02:51:36.917Z,30.38
2023-06-02T02:52:36.942Z,29.94
2023-06-02T02:53:36.942Z,29.34
2023-06-02T02:54:36.932Z,30.39
2023-06-02T02:55:36.946Z,32.32
2023-06-02T02:56:36.975Z,28.93
2023-06-02T02:57:36.962Z,27.04
2023-06-02T02:58:36.971Z,28.06
2023-06-02T02:59:37.000Z,30.24
2023-06-02T03:00:37.007Z,27.55
2023-06-02T03:01:37.060Z,30.12
2023-06-02T03:02:37.050Z,29.69
2023-06-02T03:03:37.021Z,30.04
2023-06-02T03:04:37.045Z,29.82
2023-06-02T03:05:37.085Z,28.85
2023-06-02T03:06:37.133Z,32.41
2023-06-02T03:07:37.181Z,31.02
2023-06-02T03:08:37.201Z,32.53
2023-06-02T03:09:37.207Z,31.15
2023-06-02T03:10:37.228Z,29.21
2023-06-02T03:11:37.249Z,30.92
2023-06-02T03:12:37.269Z,33.24
2023-06-02T03:13:37.297Z,30.57
2023-06-02T03:14:37.318Z,29.26
2023-06-02T03:15:37.367Z,30.27
2023-06-02T03:16:37.412Z,31.67
2023-06-02T03:17:37.471Z,31.15
2023-06-02T03:18:37.443Z,31.06
2023-06-02T03:19:37.465Z,25.08
2023-06-02T03:20:37.487Z,27.57
2023-06-02T03:21:37.569Z,31.01
2023-06-02T03:22:37.583Z,30.94
2023-06-02T03:23:37.668Z,30.56
2023-06-02T03:24:37.700Z,27.42
2023-06-02T03:25:37.749Z,26.87
2023-06-02T03:26:37.814Z,32.65
2023-06-02T03:27:37.830Z,34.16
2023-06-02T03:28:37.915Z,30.59
2023-06-02T03:29:37.948Z,29.02
2023-06-02T03:30:38.004Z,28.83
2023-06-02T03:31:38.145Z,27.84
2023-06-02T03:32:38.163Z,27.36
2023-06-02T03:33:38.200Z,32.12
2023-06-02T03:34:38.276Z,29.68
2023-06-02T03:35:38.347Z,31.78
2023-06-02T03:36:38.369Z,31.39
2023-06-02T03:37:38.390Z,29.61
2023-06-02T03:38:38.436Z,32.34
2023-06-02T03:39:38.489Z,30.97
2023-06-02T03:40:38.541Z,31.30
2023-06-02T03:41:38.563Z,28.80
2023-06-02T03:42:38.598Z,27.37
2023-06-02T03:43:38.614Z,30.85
2023-06-02T03:44:38.655Z,29.52
2023-06-02T03:45:38.665Z,33.22
2023-06-02T03:46:38.695Z,28.83
2023-06-02T03:47:38.758Z,26.36
2023-06-02T03:48:38.733Z,31.22
2023-06-02T03:49:38.777Z,27.07
2023-06-02T03:50:38.793Z,25.74
2023-06-02T03:51:38.809Z,32.69
2023-06-02T03:52:38.845Z,32.11
2023-06-02T03:53:38.876Z,28.26
2023-06-02T03:54:38.894Z,27.68
2023-06-02T03:55:38.929Z,29.52
2023-06-02T03:56:38.957Z,29.21
2023-06-02T03:57:39.006Z,30.37
2023-06-02T03:58:39.022Z,29.80
2023-06-02T03:59:39.057Z,30.41
2023-06-02T04:00:39.079Z,26.25
2023-06-02T04:01:39.128Z,31.35
2023-06-02T04:02:39.179Z,31.81
2023-06-02T04:03:39.212Z,33.52
2023-06-02T04:04:39.328Z,26.22
2023-06-02T04:05:39.304Z,29.26
2023-06-02T04:06:39.351Z,30.42
2023-06-02T04:07:39.389Z,29.13
2023-06-02T04:08:39.443Z,28.42
2023-06-02T04:09:39.480Z,28.91
2023-06-02T04:10:39.557Z,26.07
2023-06-02T04:11:39.581Z,29.45
2023-06-02T04:12:39.638Z,30.88
2023-06-02T04:13:39.628Z,29.10
2023-06-02T04:14:39.657Z,29.21
2023-06-02T04:15:39.688Z,27.86
2023-06-02T04:16:39.778Z,31.15
2023-06-02T04:17:39.739Z,28.60
2023-06-02T04:18:39.744Z,30.09
2023-06-02T04:19:39.756Z,28.05
2023-06-02T04:20:39.787Z,29.79
2023-06-02T04:21:39.819Z,30.15
2023-06-02T04:22:39.846Z,31.97
2023-06-02T04:23:39.897Z,28.29
2023-06-02T04:24:39.916Z,29.49
2023-06-02T04:25:39.933Z,28.26
2023-06-02T04:26:39.956Z,27.38
2023-06-02T04:27:39.980Z,28.19
2023-06-02T04:28:39.996Z,27.50
2023-06-02T04:29:39.984Z,29.70
2023-06-02T04:30:39.993Z,28.95
2023-06-02T04:31:40.014Z,29.83
2023-06-02T04:32:40.060Z,33.15
2023-06-02T04:33:40.011Z,32.10
2023-06-02T04:34:40.028Z,30.05
2023-06-02T04:35:40.038Z,27.84
2023-06-02T04:36:40.045Z,30.02
2023-06-02T04:37:40.262Z,30.98
2023-06-02T04:38:40.123Z,28.11
2023-06-02T04:39:40.197Z,31.70
2023-06-02T04:40:40.215Z,26.89
2023-06-02T04:41:40.212Z,26.57
2023-06-02T04:42:40.233Z,25.00
2023-06-02T04:43:40.253Z,28.23
2023-06-02T04:44:40.295Z,29.07
2023-06-02T04:45:40.334Z,28.26
2023-06-02T04:46:40.420Z,31.11
2023-06-02T04:47:40.530Z,29.22
2023-06-02T04:48:40.518Z,29.12
2023-06-02T04:49:40.594Z,26.58
2023-06-02T04:50:40.653Z,27.93
2023-06-02T04:51:40.716Z,27.65
2023-06-02T04:52:40.784Z,29.26
2023-06-02T04:53:40.851Z,30.06
2023-06-02T04:54:40.905Z,33.41
2023-06-02T04:55:40.986Z,31.78
2023-06-02T04:56:41.052Z,30.66
2023-06-02T04:57:41.124Z,32.89
2023-06-02T04:58:41.163Z,29.26
2023-06-02T04:59:41.237Z,32.35
2023-06-02T05:00:41.302Z,32.79
2023-06-02T05:01:41.411Z,27.90
2023-06-02T05:02:41.484Z,30.22
2023-06-02T05:03:41.520Z,28.70
2023-06-02T05:04:41.575Z,26.78
2023-06-02T05:05:41.646Z,27.48
2023-06-02T05:06:41.722Z,27.89
2023-06-02T05:07:41.800Z,33.61
2023-06-02T05:08:41.860Z,27.78
2023-06-02T05:09:41.950Z,25.72
2023-06-02T05:10:42.017Z,29.91
2023-06-02T05:11:42.075Z,27.31
2023-06-02T05:12:42.146Z,28.93
2023-06-02T05:13:42.207Z,33.15
2023-06-02T05:14:42.281Z,29.20
2023-06-02T05:15:42.547Z,29.63
2023-06-02T05:16:42.504Z,30.68
2023-06-02T05:17:42.513Z,26.44
2023-06-02T05:18:42.555Z,25.00
2023-06-02T05:19:42.632Z,11.08
2023-06-02T05:20:42.692Z,8.40
2023-06-02T05:21:42.779Z,17.96
2023-06-02T05:22:42.789Z,17.96
2023-06-02T05:23:42.849Z,25.00
2023-06-02T05:24:42.941Z,24.77
2023-06-02T05:25:42.965Z,25.10
2023-06-02T05:26:42.973Z,25.00
2023-06-02T05:27:43.019Z,25.00
2023-06-02T05:28:43.033Z,24.73
2023-06-02T05:29:43.048Z,27.15
2023-06-02T05:30:43.077Z,21.71
2023-06-02T05:31:43.209Z,22.83
2023-06-02T05:32:43.172Z,27.58
2023-06-02T05:33:43.145Z,28.72
2023-06-02T05:34:43.171Z,32.71
2023-06-02T05:35:43.201Z,35.82
2023-06-02T05:36:43.224Z,36.93
2023-06-02T05:37:43.222Z,39.95
2023-06-02T05:38:43.278Z,68.05
2023-06-02T05:39:43.329Z,61.73
2023-06-02T05:40:43.387Z,72.39
2023-06-02T05:41:43.433Z,57.38
2023-06-02T05:42:44.042Z,76.89
2023-06-02T05:43:43.572Z,94.14
2023-06-02T05:44:43.655Z,94.72
2023-06-02T05:45:43.770Z,103.69
2023-06-02T05:46:43.814Z,115.40
2023-06-02T05:47:43.957Z,111.44
2023-06-02T05:48:43.964Z,105.32
2023-06-02T05:49:44.018Z,118.93
2023-06-02T05:50:44.093Z,120.89
2023-06-02T05:51:44.160Z,112.28
2023-06-02T05:52:44.212Z,104.61
2023-06-02T05:53:44.247Z,113.49
2023-06-02T05:54:44.309Z,105.84
2023-06-02T05:55:44.384Z,105.40
2023-06-02T05:56:44.435Z,83.60
2023-06-02T05:57:44.479Z,108.68
2023-06-02T05:58:44.531Z,116.77
2023-06-02T05:59:44.585Z,109.18
2023-06-02T06:00:44.645Z,114.55
2023-06-02T06:01:44.698Z,115.34
2023-06-02T06:02:44.795Z,119.63
2023-06-02T06:03:45.629Z,126.85
2023-06-02T06:04:44.826Z,130.32
2023-06-02T06:05:44.864Z,149.06
2023-06-02T06:06:44.903Z,162.57
2023-06-02T06:07:44.968Z,162.35
2023-06-02T06:08:44.990Z,165.43
2023-06-02T06:09:45.010Z,163.20
2023-06-02T06:10:45.052Z,164.35
2023-06-02T06:11:45.086Z,166.16
2023-06-02T06:12:45.168Z,167.71
2023-06-02T06:13:45.126Z,176.61
2023-06-02T06:14:45.156Z,186.82
2023-06-02T06:15:45.203Z,187.00
2023-06-02T06:16:45.222Z,197.04
2023-06-02T06:17:45.249Z,204.42
2023-06-02T06:18:45.256Z,206.89
2023-06-02T06:19:45.286Z,205.42
2023-06-02T06:20:46.050Z,211.32
2023-06-02T06:21:45.357Z,211.85
2023-06-02T06:22:45.361Z,211.58
2023-06-02T06:23:45.363Z,207.27
2023-06-02T06:24:45.391Z,192.34
2023-06-02T06:25:45.480Z,196.89
2023-06-02T06:26:45.542Z,200.17
2023-06-02T06:27:45.574Z,197.72
2023-06-02T06:28:45.597Z,196.05
2023-06-02T06:29:45.613Z,194.77
2023-06-02T06:30:45.640Z,197.88
2023-06-02T06:31:45.858Z,203.96
2023-06-02T06:32:45.853Z,211.65
2023-06-02T06:33:45.828Z,212.20
2023-06-02T06:34:45.852Z,215.12
2023-06-02T06:35:46.551Z,221.21
2023-06-02T06:36:45.894Z,221.40
2023-06-02T06:37:45.917Z,225.18
2023-06-02T06:38:45.944Z,226.44
2023-06-02T06:39:45.913Z,234.00
2023-06-02T06:40:45.962Z,241.41
2023-06-02T06:41:46.043Z,244.95
2023-06-02T06:42:46.113Z,246.91
2023-06-02T06:43:46.205Z,248.32
2023-06-02T06:44:46.294Z,248.40
2023-06-02T06:45:46.384Z,245.83
2023-06-02T06:46:46.482Z,250.00
2023-06-02T06:47:46.618Z,248.82
2023-06-02T06:48:47.876Z,248.51
2023-06-02T06:49:46.658Z,248.95
2023-06-02T06:50:46.666Z,249.12
2023-06-02T06:51:46.662Z,250.64
2023-06-02T06:52:46.637Z,250.28
2023-06-02T06:53:46.645Z,249.77
2023-06-02T06:54:46.636Z,249.94
2023-06-02T06:55:46.635Z,248.80
2023-06-02T06:56:47.576Z,248.40
2023-06-02T06:57:46.627Z,249.10
2023-06-02T06:58:46.620Z,247.75
2023-06-02T06:59:47.681Z,248.02
2023-06-02T07:00:46.616Z,248.61
2023-06-02T07:01:47.604Z,249.32
2023-06-02T07:02:46.692Z,250.11
2023-06-02T07:03:46.699Z,249.23
2023-06-02T07:04:46.591Z,248.09
2023-06-02T07:05:46.593Z,245.78
2023-06-02T07:06:46.583Z,247.66
2023-06-02T07:07:46.609Z,246.65
2023-06-02T07:08:46.681Z,246.73
2023-06-02T07:09:46.753Z,244.94
2023-06-02T07:10:46.810Z,246.40
2023-06-02T07:11:46.867Z,244.76
2023-06-02T07:12:46.927Z,250.00
2023-06-02T07:13:46.982Z,247.60
2023-06-02T07:14:47.034Z,248.55
2023-06-02T07:15:47.112Z,249.01
2023-06-02T07:16:47.248Z,249.25
2023-06-02T07:17:47.244Z,249.54
2023-06-02T07:18:47.253Z,249.90
2023-06-02T07:19:47.433Z,247.34
2023-06-02T07:20:47.351Z,246.37
2023-06-02T07:21:47.435Z,247.26
2023-06-02T07:22:47.465Z,245.19
2023-06-02T07:23:47.999Z,241.71
2023-06-02T07:24:47.579Z,234.15
2023-06-02T07:25:47.648Z,226.06
2023-06-02T07:26:47.693Z,224.73
2023-06-02T07:27:47.748Z,220.60
2023-06-02T07:28:47.792Z,221.39
2023-06-02T07:29:48.576Z,218.00
2023-06-02T07:30:54.391Z,222.85
2023-06-02T07:31:48.957Z,223.00
2023-06-02T07:32:47.941Z,223.31
2023-06-02T07:33:47.915Z,223.66
2023-06-02T07:34:47.896Z,227.06
2023-06-02T07:35:47.897Z,228.39
2023-06-02T07:36:47.886Z,235.08
2023-06-02T07:37:47.958Z,239.95
2023-06-02T07:38:47.873Z,242.55
2023-06-02T07:39:47.868Z,248.34
2023-06-02T07:40:47.863Z,250.00
2023-06-02T07:41:47.885Z,249.57
2023-06-02T07:42:48.502Z,250.00
2023-06-02T07:43:47.979Z,250.00
2023-06-02T07:44:48.004Z,250.00
2023-06-02T07:45:48.050Z,246.79
2023-06-02T07:46:48.094Z,243.28
2023-06-02T07:47:48.164Z,241.18
2023-06-02T07:48:48.154Z,241.68
2023-06-02T07:49:48.216Z,240.62
2023-06-02T07:50:48.242Z,243.69
2023-06-02T07:51:48.284Z,244.51
2023-06-02T07:52:48.325Z,247.75
2023-06-02T07:53:48.373Z,248.31
2023-06-02T07:54:48.414Z,248.40
2023-06-02T07:55:48.547Z,247.95
2023-06-02T07:56:48.485Z,249.61
2023-06-02T07:57:48.531Z,247.51
2023-06-02T07:58:48.580Z,250.00
2023-06-02T07:59:48.605Z,246.85
2023-06-02T08:00:48.634Z,249.05
2023-06-02T08:01:48.721Z,250.00
2023-06-02T08:02:48.868Z,248.89
2023-06-02T08:03:48.898Z,248.84
2023-06-02T08:04:48.895Z,246.24
2023-06-02T08:05:48.828Z,243.81
2023-06-02T08:06:48.851Z,246.88
2023-06-02T08:07:48.888Z,249.35
2023-06-02T08:08:48.930Z,249.32
2023-06-02T08:09:48.964Z,247.96
2023-06-02T08:10:48.997Z,247.46
2023-06-02T08:11:49.029Z,250.00
2023-06-02T08:12:49.069Z,249.31
2023-06-02T08:13:49.100Z,247.89
2023-06-02T08:14:49.128Z,247.44
2023-06-02T08:16:02.366Z,248.66
2023-06-02T08:17:49.266Z,218.33
2023-06-02T08:18:49.164Z,204.54
2023-06-02T08:19:49.112Z,193.64
2023-06-02T08:20:50.959Z,183.70
2023-06-02T08:21:49.185Z,179.63
2023-06-02T08:22:49.086Z,172.39
2023-06-02T08:23:49.073Z,146.71
2023-06-02T08:24:49.065Z,105.76
2023-06-02T08:25:49.075Z,47.91
2023-06-02T08:26:49.055Z,54.58
2023-06-02T08:27:50.995Z,14.67
2023-06-02T08:28:49.602Z,0.00
2023-06-02T08:29:49.013Z,0.00
2023-06-02T08:30:49.022Z,0.00
2023-06-02T08:31:49.117Z,0.00
2023-06-02T08:32:49.008Z,0.00
2023-06-02T08:33:49.010Z,0.00
2023-06-02T08:34:48.964Z,3.32
2023-06-02T08:35:49.037Z,18.49
2023-06-02T08:36:49.589Z,25.00
2023-06-02T08:37:48.941Z,25.58
2023-06-02T08:38:48.937Z,25.00
2023-06-02T08:39:48.913Z,22.72
2023-06-02T08:40:49.040Z,31.21
2023-06-02T08:41:48.904Z,20.62
2023-06-02T08:42:48.917Z,30.54
2023-06-02T08:43:48.926Z,39.61
2023-06-02T08:44:49.388Z,40.78
2023-06-02T08:45:48.865Z,45.48
2023-06-02T08:46:49.070Z,52.98
2023-06-02T08:47:48.945Z,47.28
2023-06-02T08:48:48.915Z,39.35
2023-06-02T08:49:48.814Z,32.64
2023-06-02T08:50:48.822Z,10.55
2023-06-02T08:51:49.532Z,14.32
2023-06-02T08:52:48.910Z,23.49
2023-06-02T08:53:48.791Z,33.36
2023-06-02T08:54:48.783Z,32.42
2023-06-02T08:55:48.797Z,27.51
2023-06-02T08:56:48.876Z,26.08
2023-06-02T08:57:48.747Z,25.39
2023-06-02T08:58:48.739Z,31.04
2023-06-02T08:59:48.732Z,42.55
2023-06-02T09:00:48.726Z,48.31
2023-06-02T09:01:48.808Z,57.02
2023-06-02T09:02:48.855Z,61.14
2023-06-02T09:03:48.964Z,62.97
2023-06-02T09:04:48.794Z,66.00
2023-06-02T09:05:48.712Z,62.10
2023-06-02T09:06:48.711Z,60.70
2023-06-02T09:07:48.701Z,63.31
2023-06-02T09:08:48.697Z,54.14
2023-06-02T09:09:48.686Z,46.42
2023-06-02T09:10:48.681Z,36.86
2023-06-02T09:11:48.689Z,35.84
2023-06-02T09:12:48.661Z,28.58
2023-06-02T09:13:48.657Z,25.00
2023-06-02T09:14:48.635Z,25.00
2023-06-02T09:15:48.637Z,25.52
2023-06-02T09:16:48.686Z,27.97
2023-06-02T09:17:48.697Z,27.54
2023-06-02T09:18:48.603Z,27.77
2023-06-02T09:19:48.727Z,27.73
2023-06-02T09:20:48.567Z,28.66
2023-06-02T09:21:48.599Z,25.09
2023-06-02T09:22:55.432Z,25.00
2023-06-02T09:23:59.957Z,20.65
2023-06-02T09:24:49.551Z,12.07
2023-06-02T09:25:48.513Z,3.67
2023-06-02T09:26:48.509Z,0.50
2023-06-02T09:27:50.053Z,0.00
2023-06-02T09:28:48.463Z,0.00
2023-06-02T09:29:48.462Z,0.57
2023-06-02T09:30:48.531Z,1.50
2023-06-02T09:31:48.514Z,0.35
2023-06-02T09:32:48.460Z,8.10
2023-06-02T09:33:49.138Z,18.06
2023-06-02T09:34:48.421Z,22.34
2023-06-02T09:35:48.404Z,24.87
2023-06-02T09:36:48.393Z,24.08
2023-06-02T09:37:48.390Z,24.70
2023-06-02T09:38:48.370Z,26.88
2023-06-02T09:39:48.366Z,25.00
2023-06-02T09:40:48.347Z,26.04
2023-06-02T09:41:48.429Z,24.64
2023-06-02T09:42:48.334Z,25.69
2023-06-02T09:43:48.327Z,25.61
2023-06-02T09:44:48.301Z,30.60
2023-06-02T09:45:48.474Z,30.20
2023-06-02T09:46:48.380Z,28.71
2023-06-02T09:47:48.474Z,26.93
2023-06-02T09:48:48.399Z,25.06
2023-06-02T09:49:48.247Z,25.00
2023-06-02T09:50:48.246Z,25.44
2023-06-02T09:51:48.215Z,26.11
2023-06-02T09:52:48.203Z,24.60
2023-06-02T09:53:48.183Z,26.03
2023-06-02T09:54:48.235Z,33.19
2023-06-02T09:55:48.177Z,30.70
2023-06-02T09:56:48.176Z,32.09
2023-06-02T09:57:48.149Z,30.29
2023-06-02T09:58:48.131Z,27.44
2023-06-02T09:59:48.109Z,25.00
2023-06-02T10:00:48.113Z,25.60
2023-06-02T10:01:48.102Z,27.58
2023-06-02T10:02:48.201Z,27.64
2023-06-02T10:03:48.176Z,27.55
2023-06-02T10:04:48.058Z,26.29
2023-06-02T10:05:48.064Z,28.44
2023-06-02T10:06:48.088Z,28.18
2023-06-02T10:07:48.085Z,28.79
2023-06-02T10:08:48.086Z,32.00
2023-06-02T10:09:48.098Z,30.27
2023-06-02T10:10:48.108Z,26.35
2023-06-02T10:11:48.154Z,28.34
2023-06-02T10:12:48.164Z,25.77
2023-06-02T10:13:48.157Z,26.80
2023-06-02T10:14:48.177Z,25.85
2023-06-02T10:15:48.278Z,25.13
2023-06-02T10:16:48.216Z,35.00
2023-06-02T10:17:48.328Z,46.68
2023-06-02T10:18:48.273Z,54.31
2023-06-02T10:19:48.289Z,59.94
2023-06-02T10:20:48.351Z,52.55
2023-06-02T10:21:48.375Z,50.18
2023-06-02T10:22:48.390Z,58.73
2023-06-02T10:23:48.415Z,60.29
2023-06-02T10:24:48.363Z,59.74
2023-06-02T10:25:48.372Z,77.00
2023-06-02T10:26:48.403Z,65.09
2023-06-02T10:27:48.403Z,79.24
2023-06-02T10:28:48.407Z,83.53
2023-06-02T10:29:48.442Z,84.34
2023-06-02T10:30:48.474Z,67.49
2023-06-02T10:31:48.523Z,64.53
2023-06-02T10:32:48.470Z,76.34
2023-06-02T10:33:48.464Z,88.04
2023-06-02T10:34:48.448Z,89.46
2023-06-02T10:35:48.457Z,89.56
2023-06-02T10:36:48.489Z,90.83
2023-06-02T10:37:48.527Z,91.49
2023-06-02T10:38:48.513Z,91.86
2023-06-02T10:39:48.520Z,100.95
2023-06-02T10:40:48.536Z,113.97
2023-06-02T10:41:48.553Z,123.11
2023-06-02T10:42:48.563Z,127.30
2023-06-02T10:43:48.570Z,125.26
2023-06-02T10:44:48.612Z,111.23
2023-06-02T10:45:48.600Z,108.77
2023-06-02T10:46:48.735Z,103.94
2023-06-02T10:47:48.669Z,97.15
2023-06-02T10:48:48.655Z,100.05
2023-06-02T10:49:51.046Z,92.55
2023-06-02T10:50:48.664Z,82.02
2023-06-02T10:51:48.637Z,92.25
2023-06-02T10:52:48.608Z,112.26
2023-06-02T10:53:48.591Z,116.26
2023-06-02T10:54:48.578Z,120.27
2023-06-02T10:55:49.611Z,108.16
2023-06-02T10:56:48.579Z,100.56
2023-06-02T10:57:48.532Z,94.02
2023-06-02T10:58:48.527Z,101.74
2023-06-02T10:59:48.505Z,89.65
2023-06-02T11:00:48.607Z,76.76
2023-06-02T11:01:49.494Z,75.64
2023-06-02T11:02:48.556Z,70.35
2023-06-02T11:03:48.492Z,66.48
2023-06-02T11:04:48.449Z,67.82
2023-06-02T11:05:48.437Z,66.58
2023-06-02T11:06:48.423Z,68.27
2023-06-02T11:07:48.400Z,76.36
2023-06-02T11:08:48.382Z,82.69
2023-06-02T11:09:48.388Z,86.58
2023-06-02T11:10:48.398Z,90.74
2023-06-02T11:11:48.350Z,97.65
2023-06-02T11:12:48.313Z,102.40
2023-06-02T11:13:48.313Z,106.55
2023-06-02T11:14:48.294Z,109.45
2023-06-02T11:15:48.283Z,111.82
2023-06-02T11:16:48.285Z,112.32
2023-06-02T11:17:48.318Z,115.46
2023-06-02T11:18:48.235Z,118.01
2023-06-02T11:19:48.214Z,120.36
2023-06-02T11:20:48.196Z,123.50
2023-06-02T11:21:48.191Z,124.93
2023-06-02T11:22:48.334Z,126.29
2023-06-02T11:23:48.146Z,127.35
2023-06-02T11:24:48.122Z,129.15
2023-06-02T11:25:48.104Z,131.22
2023-06-02T11:26:48.093Z,134.19
2023-06-02T11:27:48.318Z,136.42
2023-06-02T11:28:48.061Z,139.11
2023-06-02T11:29:48.030Z,140.99
2023-06-02T11:30:48.062Z,142.42
2023-06-02T11:31:48.089Z,143.99
2023-06-02T11:32:48.168Z,144.81
2023-06-02T11:33:48.128Z,147.45
2023-06-02T11:34:48.151Z,149.07
2023-06-02T11:35:48.178Z,150.82
2023-06-02T11:36:48.220Z,152.92
2023-06-02T11:37:48.235Z,154.79
2023-06-02T11:38:48.283Z,155.80
2023-06-02T11:39:48.288Z,157.63
2023-06-02T11:40:48.329Z,159.91
2023-06-02T11:41:48.363Z,160.87
2023-06-02T11:42:48.399Z,162.42
2023-06-02T11:43:48.505Z,164.06
2023-06-02T11:44:48.487Z,165.88
2023-06-02T11:45:48.523Z,166.43
2023-06-02T11:46:48.570Z,168.09
2023-06-02T11:47:48.641Z,169.54
2023-06-02T11:48:48.665Z,170.81
2023-06-02T11:49:48.682Z,172.34
2023-06-02T11:50:48.728Z,172.95
2023-06-02T11:51:48.820Z,174.91
2023-06-02T11:52:48.819Z,175.91
2023-06-02T11:53:48.867Z,178.19
2023-06-02T11:54:48.971Z,179.47
2023-06-02T11:55:49.134Z,180.13
2023-06-02T11:56:49.007Z,181.82
2023-06-02T11:57:49.050Z,181.44
2023-06-02T11:58:49.095Z,182.49
2023-06-02T11:59:49.133Z,183.92
2023-06-02T12:00:49.193Z,185.41
2023-06-02T12:01:49.257Z,185.53
2023-06-02T12:02:49.381Z,187.14
2023-06-02T12:03:49.431Z,187.80
2023-06-02T12:04:49.493Z,189.08
2023-06-02T12:05:49.704Z,189.97
2023-06-02T12:06:49.505Z,190.57
2023-06-02T12:07:49.546Z,192.03
2023-06-02T12:08:49.608Z,192.90
2023-06-02T12:09:49.640Z,193.52
2023-06-02T12:10:49.696Z,193.64
2023-06-02T12:11:49.762Z,195.12
2023-06-02T12:12:49.853Z,195.73
2023-06-02T12:13:49.844Z,195.82
2023-06-02T12:14:49.910Z,196.88
2023-06-02T12:15:49.959Z,197.35
2023-06-02T12:16:50.062Z,198.35
2023-06-02T12:17:50.088Z,199.21
2023-06-02T12:18:50.146Z,199.85
2023-06-02T12:19:50.173Z,199.89
2023-06-02T12:20:50.243Z,200.94
2023-06-02T12:21:50.305Z,201.33
2023-06-02T12:22:50.355Z,202.07
2023-06-02T12:23:50.428Z,202.52
2023-06-02T12:24:50.452Z,203.95
2023-06-02T12:25:50.509Z,203.97
2023-06-02T12:26:50.574Z,204.95
2023-06-02T12:27:50.616Z,204.67
2023-06-02T12:28:50.701Z,206.65
2023-06-02T12:29:50.736Z,209.53
2023-06-02T12:30:50.838Z,212.14
2023-06-02T12:31:50.853Z,212.75
2023-06-02T12:32:50.946Z,211.99
2023-06-02T12:33:50.978Z,214.05
2023-06-02T12:34:51.040Z,214.42
2023-06-02T12:35:51.090Z,212.60
2023-06-02T12:36:51.161Z,210.31
2023-06-02T12:37:51.215Z,210.20
2023-06-02T12:38:51.275Z,210.06
2023-06-02T12:39:51.351Z,207.52
2023-06-02T12:40:51.399Z,204.81
2023-06-02T12:41:51.481Z,204.33
2023-06-02T12:42:51.525Z,204.64
2023-06-02T12:43:51.581Z,203.22
2023-06-02T12:44:51.633Z,203.88
2023-06-02T12:45:51.698Z,202.91